sensor_id;sensor_type;location;lat;lon;timestamp;temperature;humidity
48994;DHT22;34804;49.214;12.276;2023-01-08T00:01:16;-3276.60;91.80
48994;DHT22;34804;49.214;12.276;2023-01-08T00:03:43;-3276.40;92.00
48994;DHT22;34804;49.214;12.276;2023-01-08T00:06:13;-3276.40;92.20
48994;DHT22;34804;49.214;12.276;2023-01-08T00:08:41;-3276.40;92.10
48994;DHT22;34804;49.214;12.276;2023-01-08T00:11:08;-3276.40;92.10
48994;DHT22;34804;49.214;12.276;2023-01-08T00:13:35;-3276.40;92.00
48994;DHT22;34804;49.214;12.276;2023-01-08T00:16:09;-3276.30;92.10
48994;DHT22;34804;49.214;12.276;2023-01-08T00:18:37;-3276.30;92.30
48994;DHT22;34804;49.214;12.276;2023-01-08T00:21:04;-3276.30;92.40
48994;DHT22;34804;49.214;12.276;2023-01-08T00:23:31;-3276.30;92.30
48994;DHT22;34804;49.214;12.276;2023-01-08T00:26:07;-3276.20;91.90
48994;DHT22;34804;49.214;12.276;2023-01-08T00:28:34;-3276.20;92.10
48994;DHT22;34804;49.214;12.276;2023-01-08T00:31:03;-3276.20;92.00
48994;DHT22;34804;49.214;12.276;2023-01-08T00:33:30;-3276.20;91.90
48994;DHT22;34804;49.214;12.276;2023-01-08T00:35:57;-3276.20;92.00
48994;DHT22;34804;49.214;12.276;2023-01-08T00:38:25;-3276.20;92.00
48994;DHT22;34804;49.214;12.276;2023-01-08T00:40:52;-3276.20;91.90
48994;DHT22;34804;49.214;12.276;2023-01-08T00:43:19;-3276.20;92.40
48994;DHT22;34804;49.214;12.276;2023-01-08T00:45:46;-3276.20;92.30
48994;DHT22;34804;49.214;12.276;2023-01-08T00:48:12;-3276.30;92.50
48994;DHT22;34804;49.214;12.276;2023-01-08T00:50:39;-3276.30;92.60
48994;DHT22;34804;49.214;12.276;2023-01-08T00:53:06;-3276.30;92.10
48994;DHT22;34804;49.214;12.276;2023-01-08T00:55:33;-3276.30;91.90
48994;DHT22;34804;49.214;12.276;2023-01-08T00:57:59;-3276.30;91.70
48994;DHT22;34804;49.214;12.276;2023-01-08T01:00:26;-3276.30;92.00
48994;DHT22;34804;49.214;12.276;2023-01-08T01:02:54;-3276.30;92.30
48994;DHT22;34804;49.214;12.276;2023-01-08T01:05:20;-3276.30;92.40
48994;DHT22;34804;49.214;12.276;2023-01-08T01:07:47;-3276.40;92.30
48994;DHT22;34804;49.214;12.276;2023-01-08T01:10:15;-3276.30;92.00
48994;DHT22;34804;49.214;12.276;2023-01-08T01:12:42;-3276.20;92.10
48994;DHT22;34804;49.214;12.276;2023-01-08T01:15:12;-3276.10;92.20
48994;DHT22;34804;49.214;12.276;2023-01-08T01:17:41;-3276.00;92.40
48994;DHT22;34804;49.214;12.276;2023-01-08T01:20:11;-3276.00;92.80
48994;DHT22;34804;49.214;12.276;2023-01-08T01:22:39;-3276.00;93.20
48994;DHT22;34804;49.214;12.276;2023-01-08T01:25:06;-3276.10;93.10
48994;DHT22;34804;49.214;12.276;2023-01-08T01:27:33;-3276.10;92.90
48994;DHT22;34804;49.214;12.276;2023-01-08T01:30:00;-3276.10;92.40
48994;DHT22;34804;49.214;12.276;2023-01-08T01:32:27;-3276.00;92.50
48994;DHT22;34804;49.214;12.276;2023-01-08T01:34:54;-3276.10;92.60
48994;DHT22;34804;49.214;12.276;2023-01-08T01:37:21;-3276.00;92.60
48994;DHT22;34804;49.214;12.276;2023-01-08T01:39:48;-3276.10;92.80
48994;DHT22;34804;49.214;12.276;2023-01-08T01:42:17;-3276.20;92.90
48994;DHT22;34804;49.214;12.276;2023-01-08T01:45:17;-3276.20;93.00
48994;DHT22;34804;49.214;12.276;2023-01-08T01:47:58;-3276.20;92.70
48994;DHT22;34804;49.214;12.276;2023-01-08T01:50:32;-3276.10;92.70
48994;DHT22;34804;49.214;12.276;2023-01-08T01:53:11;-3276.00;92.10
48994;DHT22;34804;49.214;12.276;2023-01-08T01:55:41;-3275.80;91.80
48994;DHT22;34804;49.214;12.276;2023-01-08T01:58:21;-3275.80;91.90
48994;DHT22;34804;49.214;12.276;2023-01-08T02:00:49;-3275.70;92.10
48994;DHT22;34804;49.214;12.276;2023-01-08T02:03:20;-3275.70;92.60
48994;DHT22;34804;49.214;12.276;2023-01-08T02:11:48;-3275.80;92.50
48994;DHT22;34804;49.214;12.276;2023-01-08T02:28:53;-3275.70;92.60
48994;DHT22;34804;49.214;12.276;2023-01-08T02:31:22;-3275.70;92.40
48994;DHT22;34804;49.214;12.276;2023-01-08T02:33:49;-3275.70;92.40
48994;DHT22;34804;49.214;12.276;2023-01-08T02:39:11;-3275.50;92.40
48994;DHT22;34804;49.214;12.276;2023-01-08T02:41:57;-3275.50;92.70
48994;DHT22;34804;49.214;12.276;2023-01-08T02:44:33;-3275.50;92.90
48994;DHT22;34804;49.214;12.276;2023-01-08T02:47:04;-3275.60;92.80
48994;DHT22;34804;49.214;12.276;2023-01-08T02:49:35;-3275.60;92.80
48994;DHT22;34804;49.214;12.276;2023-01-08T02:52:05;-3275.60;92.70
48994;DHT22;34804;49.214;12.276;2023-01-08T02:54:34;-3275.60;92.80
48994;DHT22;34804;49.214;12.276;2023-01-08T02:57:09;-3275.60;93.20
48994;DHT22;34804;49.214;12.276;2023-01-08T02:59:37;-3275.60;92.90
48994;DHT22;34804;49.214;12.276;2023-01-08T03:02:06;-3275.60;92.70
48994;DHT22;34804;49.214;12.276;2023-01-08T03:04:38;-3275.50;92.50
48994;DHT22;34804;49.214;12.276;2023-01-08T03:07:05;-3275.50;92.40
48994;DHT22;34804;49.214;12.276;2023-01-08T03:09:32;-3275.40;92.10
48994;DHT22;34804;49.214;12.276;2023-01-08T03:12:05;-3275.30;92.20
48994;DHT22;34804;49.214;12.276;2023-01-08T03:14:42;-3275.30;92.80
48994;DHT22;34804;49.214;12.276;2023-01-08T03:17:19;-3275.30;92.70
48994;DHT22;34804;49.214;12.276;2023-01-08T03:19:57;-3275.10;92.20
48994;DHT22;34804;49.214;12.276;2023-01-08T03:22:27;-3275.20;92.50
48994;DHT22;34804;49.214;12.276;2023-01-08T03:24:56;-3275.20;92.90
48994;DHT22;34804;49.214;12.276;2023-01-08T03:27:27;-3275.20;93.00
48994;DHT22;34804;49.214;12.276;2023-01-08T03:29:57;-3275.30;93.10
48994;DHT22;34804;49.214;12.276;2023-01-08T03:32:26;-3275.40;93.20
48994;DHT22;34804;49.214;12.276;2023-01-08T03:34:56;-3275.50;93.10
48994;DHT22;34804;49.214;12.276;2023-01-08T03:37:31;-3275.50;92.90
48994;DHT22;34804;49.214;12.276;2023-01-08T03:40:12;-3275.60;92.90
48994;DHT22;34804;49.214;12.276;2023-01-08T03:42:39;-3275.60;93.00
48994;DHT22;34804;49.214;12.276;2023-01-08T03:45:06;-3275.70;93.00
48994;DHT22;34804;49.214;12.276;2023-01-08T03:47:35;-3275.70;93.30
48994;DHT22;34804;49.214;12.276;2023-01-08T03:50:08;-3275.70;93.40
48994;DHT22;34804;49.214;12.276;2023-01-08T03:52:35;-3275.70;93.50
48994;DHT22;34804;49.214;12.276;2023-01-08T03:55:03;-3275.70;93.50
48994;DHT22;34804;49.214;12.276;2023-01-08T03:57:30;-3275.80;93.90
48994;DHT22;34804;49.214;12.276;2023-01-08T03:59:56;-3275.80;93.70
48994;DHT22;34804;49.214;12.276;2023-01-08T04:02:23;-3275.70;93.20
48994;DHT22;34804;49.214;12.276;2023-01-08T04:04:50;-3275.70;93.30
48994;DHT22;34804;49.214;12.276;2023-01-08T04:07:17;-3275.70;93.30
48994;DHT22;34804;49.214;12.276;2023-01-08T04:09:43;-3275.60;93.40
48994;DHT22;34804;49.214;12.276;2023-01-08T04:12:10;-3275.40;93.10
48994;DHT22;34804;49.214;12.276;2023-01-08T04:14:37;-3275.40;93.20
48994;DHT22;34804;49.214;12.276;2023-01-08T04:17:04;-3275.20;93.30
48994;DHT22;34804;49.214;12.276;2023-01-08T04:19:31;-3275.20;93.70
48994;DHT22;34804;49.214;12.276;2023-01-08T04:21:57;-3275.30;94.00
48994;DHT22;34804;49.214;12.276;2023-01-08T04:24:24;-3275.40;94.20
48994;DHT22;34804;49.214;12.276;2023-01-08T04:26:51;-3275.50;94.50
48994;DHT22;34804;49.214;12.276;2023-01-08T04:29:18;-3275.60;94.60
48994;DHT22;34804;49.214;12.276;2023-01-08T04:31:44;-3275.70;94.60
48994;DHT22;34804;49.214;12.276;2023-01-08T04:34:11;-3275.70;94.50
48994;DHT22;34804;49.214;12.276;2023-01-08T04:36:38;-3275.70;94.50
48994;DHT22;34804;49.214;12.276;2023-01-08T04:39:06;-3275.90;94.60
48994;DHT22;34804;49.214;12.276;2023-01-08T04:41:33;-3275.90;94.30
48994;DHT22;34804;49.214;12.276;2023-01-08T04:44:00;-3276.00;94.50
48994;DHT22;34804;49.214;12.276;2023-01-08T04:46:27;-3276.00;94.10
48994;DHT22;34804;49.214;12.276;2023-01-08T04:48:54;-3276.00;94.00
48994;DHT22;34804;49.214;12.276;2023-01-08T04:51:21;-3276.10;94.00
48994;DHT22;34804;49.214;12.276;2023-01-08T04:53:48;-3276.10;93.80
48994;DHT22;34804;49.214;12.276;2023-01-08T04:56:15;-3276.10;93.30
48994;DHT22;34804;49.214;12.276;2023-01-08T04:58:42;-3276.10;93.30
48994;DHT22;34804;49.214;12.276;2023-01-08T05:01:14;-3276.10;93.60
48994;DHT22;34804;49.214;12.276;2023-01-08T05:03:43;-3276.10;93.40
48994;DHT22;34804;49.214;12.276;2023-01-08T05:06:10;-3276.00;93.10
48994;DHT22;34804;49.214;12.276;2023-01-08T05:08:37;-3276.00;93.40
48994;DHT22;34804;49.214;12.276;2023-01-08T05:11:04;-3276.00;93.50
48994;DHT22;34804;49.214;12.276;2023-01-08T05:13:31;-3276.00;93.50
48994;DHT22;34804;49.214;12.276;2023-01-08T05:15:59;-3276.00;93.50
48994;DHT22;34804;49.214;12.276;2023-01-08T05:18:27;-3276.00;93.50
48994;DHT22;34804;49.214;12.276;2023-01-08T05:20:55;-3275.90;93.40
48994;DHT22;34804;49.214;12.276;2023-01-08T05:23:24;-3275.90;93.30
48994;DHT22;34804;49.214;12.276;2023-01-08T05:25:51;-3275.80;93.20
48994;DHT22;34804;49.214;12.276;2023-01-08T05:28:18;-3275.80;93.30
48994;DHT22;34804;49.214;12.276;2023-01-08T05:30:44;-3275.80;93.30
48994;DHT22;34804;49.214;12.276;2023-01-08T05:33:11;-3275.70;93.20
48994;DHT22;34804;49.214;12.276;2023-01-08T05:35:38;-3275.70;93.30
48994;DHT22;34804;49.214;12.276;2023-01-08T05:38:06;-3275.70;93.40
48994;DHT22;34804;49.214;12.276;2023-01-08T05:40:33;-3275.70;93.30
48994;DHT22;34804;49.214;12.276;2023-01-08T05:43:00;-3275.80;93.70
48994;DHT22;34804;49.214;12.276;2023-01-08T05:45:27;-3275.80;93.70
48994;DHT22;34804;49.214;12.276;2023-01-08T05:47:54;-3275.80;93.50
48994;DHT22;34804;49.214;12.276;2023-01-08T05:50:21;-3275.70;93.30
48994;DHT22;34804;49.214;12.276;2023-01-08T05:52:48;-3275.70;93.20
48994;DHT22;34804;49.214;12.276;2023-01-08T05:55:15;-3275.70;93.20
48994;DHT22;34804;49.214;12.276;2023-01-08T05:57:41;-3275.70;93.70
48994;DHT22;34804;49.214;12.276;2023-01-08T06:00:09;-3275.70;93.60
48994;DHT22;34804;49.214;12.276;2023-01-08T06:02:36;-3275.70;93.60
48994;DHT22;34804;49.214;12.276;2023-01-08T06:05:03;-3275.70;93.00
48994;DHT22;34804;49.214;12.276;2023-01-08T06:07:30;-3275.60;92.90
48994;DHT22;34804;49.214;12.276;2023-01-08T06:09:57;-3275.70;93.30
48994;DHT22;34804;49.214;12.276;2023-01-08T06:12:24;-3275.70;93.40
48994;DHT22;34804;49.214;12.276;2023-01-08T06:14:50;-3275.70;93.50
48994;DHT22;34804;49.214;12.276;2023-01-08T06:17:17;-3275.80;94.10
48994;DHT22;34804;49.214;12.276;2023-01-08T06:19:44;-3275.90;94.00
48994;DHT22;34804;49.214;12.276;2023-01-08T06:22:13;-3276.00;94.20
48994;DHT22;34804;49.214;12.276;2023-01-08T06:24:39;-3276.10;94.20
48994;DHT22;34804;49.214;12.276;2023-01-08T06:27:06;-3276.20;94.30
48994;DHT22;34804;49.214;12.276;2023-01-08T06:29:33;-3276.20;94.10
48994;DHT22;34804;49.214;12.276;2023-01-08T06:32:00;-3276.30;93.90
48994;DHT22;34804;49.214;12.276;2023-01-08T06:34:26;-3276.30;93.90
48994;DHT22;34804;49.214;12.276;2023-01-08T06:36:53;-3276.40;93.80
48994;DHT22;34804;49.214;12.276;2023-01-08T06:39:20;-3276.40;93.60
48994;DHT22;34804;49.214;12.276;2023-01-08T06:41:47;-3276.40;93.70
48994;DHT22;34804;49.214;12.276;2023-01-08T06:44:13;-3276.40;93.60
48994;DHT22;34804;49.214;12.276;2023-01-08T06:46:40;-3276.50;93.50
48994;DHT22;34804;49.214;12.276;2023-01-08T06:49:08;-3276.50;93.50
48994;DHT22;34804;49.214;12.276;2023-01-08T06:51:35;-3276.50;93.00
48994;DHT22;34804;49.214;12.276;2023-01-08T06:54:02;-3276.40;92.80
48994;DHT22;34804;49.214;12.276;2023-01-08T06:56:29;-3276.40;93.00
48994;DHT22;34804;49.214;12.276;2023-01-08T06:58:55;-3276.40;92.80
48994;DHT22;34804;49.214;12.276;2023-01-08T07:01:22;-3276.30;92.90
48994;DHT22;34804;49.214;12.276;2023-01-08T07:03:49;-3276.30;92.80
48994;DHT22;34804;49.214;12.276;2023-01-08T07:06:18;-3276.20;93.00
48994;DHT22;34804;49.214;12.276;2023-01-08T07:08:46;-3276.20;93.10
48994;DHT22;34804;49.214;12.276;2023-01-08T07:11:14;-3276.20;93.30
48994;DHT22;34804;49.214;12.276;2023-01-08T07:13:41;-3276.20;93.30
48994;DHT22;34804;49.214;12.276;2023-01-08T07:16:11;-3276.20;93.30
48994;DHT22;34804;49.214;12.276;2023-01-08T07:18:38;-3276.20;92.90
48994;DHT22;34804;49.214;12.276;2023-01-08T07:21:06;-3276.20;93.10
48994;DHT22;34804;49.214;12.276;2023-01-08T07:23:34;-3276.20;93.00
48994;DHT22;34804;49.214;12.276;2023-01-08T07:26:03;-3276.20;93.00
48994;DHT22;34804;49.214;12.276;2023-01-08T07:28:31;-3276.20;92.80
48994;DHT22;34804;49.214;12.276;2023-01-08T07:31:01;-3276.20;92.80
48994;DHT22;34804;49.214;12.276;2023-01-08T07:33:28;-3276.30;92.90
48994;DHT22;34804;49.214;12.276;2023-01-08T07:35:55;-3276.30;93.00
48994;DHT22;34804;49.214;12.276;2023-01-08T07:38:22;-3276.30;92.80
48994;DHT22;34804;49.214;12.276;2023-01-08T07:40:49;-3276.30;93.10
48994;DHT22;34804;49.214;12.276;2023-01-08T07:43:16;-3276.50;93.20
48994;DHT22;34804;49.214;12.276;2023-01-08T07:45:42;-3276.60;93.00
48994;DHT22;34804;49.214;12.276;2023-01-08T07:48:09;-3276.60;92.80
48994;DHT22;34804;49.214;12.276;2023-01-08T07:50:42;-3276.70;92.70
48994;DHT22;34804;49.214;12.276;2023-01-08T07:53:10;-3276.60;92.40
48994;DHT22;34804;49.214;12.276;2023-01-08T07:55:38;-3276.50;92.50
48994;DHT22;34804;49.214;12.276;2023-01-08T07:58:09;-3276.70;92.60
48994;DHT22;34804;49.214;12.276;2023-01-08T08:00:36;-3276.60;92.40
48994;DHT22;34804;49.214;12.276;2023-01-08T08:03:05;-3276.70;92.90
48994;DHT22;34804;49.214;12.276;2023-01-08T08:05:33;-3276.70;92.80
48994;DHT22;34804;49.214;12.276;2023-01-08T08:08:00;0.00;92.90
48994;DHT22;34804;49.214;12.276;2023-01-08T08:10:27;0.00;92.60
48994;DHT22;34804;49.214;12.276;2023-01-08T08:12:54;0.00;92.90
48994;DHT22;34804;49.214;12.276;2023-01-08T08:15:20;0.10;92.90
48994;DHT22;34804;49.214;12.276;2023-01-08T08:17:47;0.10;92.40
48994;DHT22;34804;49.214;12.276;2023-01-08T08:20:15;0.10;92.40
48994;DHT22;34804;49.214;12.276;2023-01-08T08:22:42;0.20;92.40
48994;DHT22;34804;49.214;12.276;2023-01-08T08:25:09;0.20;92.40
48994;DHT22;34804;49.214;12.276;2023-01-08T08:27:36;0.30;92.60
48994;DHT22;34804;49.214;12.276;2023-01-08T08:30:05;0.30;92.40
48994;DHT22;34804;49.214;12.276;2023-01-08T08:32:32;0.30;92.30
48994;DHT22;34804;49.214;12.276;2023-01-08T08:34:59;0.20;92.40
48994;DHT22;34804;49.214;12.276;2023-01-08T08:37:26;0.20;92.50
48994;DHT22;34804;49.214;12.276;2023-01-08T08:39:53;0.20;92.70
48994;DHT22;34804;49.214;12.276;2023-01-08T08:42:20;0.20;92.90
48994;DHT22;34804;49.214;12.276;2023-01-08T08:44:46;0.30;93.10
48994;DHT22;34804;49.214;12.276;2023-01-08T08:47:13;0.30;93.10
48994;DHT22;34804;49.214;12.276;2023-01-08T08:49:40;0.40;93.10
48994;DHT22;34804;49.214;12.276;2023-01-08T08:52:07;0.40;93.10
48994;DHT22;34804;49.214;12.276;2023-01-08T08:54:33;0.40;93.10
48994;DHT22;34804;49.214;12.276;2023-01-08T08:57:00;0.50;93.20
48994;DHT22;34804;49.214;12.276;2023-01-08T08:59:28;0.60;93.10
48994;DHT22;34804;49.214;12.276;2023-01-08T09:01:55;0.70;93.20
48994;DHT22;34804;49.214;12.276;2023-01-08T09:04:22;0.80;93.20
48994;DHT22;34804;49.214;12.276;2023-01-08T09:06:49;0.80;93.20
48994;DHT22;34804;49.214;12.276;2023-01-08T09:09:15;0.90;93.00
48994;DHT22;34804;49.214;12.276;2023-01-08T09:11:42;1.00;92.90
48994;DHT22;34804;49.214;12.276;2023-01-08T09:14:09;1.00;92.90
48994;DHT22;34804;49.214;12.276;2023-01-08T09:16:36;1.00;92.80
48994;DHT22;34804;49.214;12.276;2023-01-08T09:19:05;1.00;92.90
48994;DHT22;34804;49.214;12.276;2023-01-08T09:21:33;0.90;92.80
48994;DHT22;34804;49.214;12.276;2023-01-08T09:23:59;0.90;93.00
48994;DHT22;34804;49.214;12.276;2023-01-08T09:26:26;1.10;93.10
48994;DHT22;34804;49.214;12.276;2023-01-08T09:28:54;1.10;93.00
48994;DHT22;34804;49.214;12.276;2023-01-08T09:31:21;1.20;93.10
48994;DHT22;34804;49.214;12.276;2023-01-08T09:33:48;1.20;93.00
48994;DHT22;34804;49.214;12.276;2023-01-08T09:36:16;1.20;93.00
48994;DHT22;34804;49.214;12.276;2023-01-08T09:38:43;1.20;93.00
48994;DHT22;34804;49.214;12.276;2023-01-08T09:41:32;1.30;93.30
48994;DHT22;34804;49.214;12.276;2023-01-08T09:44:02;1.40;93.40
48994;DHT22;34804;49.214;12.276;2023-01-08T09:46:30;1.60;93.40
48994;DHT22;34804;49.214;12.276;2023-01-08T09:49:04;1.70;92.40
48994;DHT22;34804;49.214;12.276;2023-01-08T09:51:34;1.60;92.50
48994;DHT22;34804;49.214;12.276;2023-01-08T09:54:02;1.70;92.60
48994;DHT22;34804;49.214;12.276;2023-01-08T09:56:29;1.80;92.40
48994;DHT22;34804;49.214;12.276;2023-01-08T09:59:01;1.70;92.50
48994;DHT22;34804;49.214;12.276;2023-01-08T10:01:34;1.90;92.90
48994;DHT22;34804;49.214;12.276;2023-01-08T10:07:05;1.90;92.50
48994;DHT22;34804;49.214;12.276;2023-01-08T10:09:36;2.00;92.20
48994;DHT22;34804;49.214;12.276;2023-01-08T10:12:04;2.10;92.20
48994;DHT22;34804;49.214;12.276;2023-01-08T10:14:37;2.10;91.80
48994;DHT22;34804;49.214;12.276;2023-01-08T10:19:45;2.30;91.70
48994;DHT22;34804;49.214;12.276;2023-01-08T10:22:15;2.30;91.70
48994;DHT22;34804;49.214;12.276;2023-01-08T10:24:42;2.50;91.90
48994;DHT22;34804;49.214;12.276;2023-01-08T10:27:18;2.60;91.40
48994;DHT22;34804;49.214;12.276;2023-01-08T10:29:45;2.70;91.40
48994;DHT22;34804;49.214;12.276;2023-01-08T10:32:29;2.80;91.70
48994;DHT22;34804;49.214;12.276;2023-01-08T10:35:01;3.00;92.00
48994;DHT22;34804;49.214;12.276;2023-01-08T10:37:38;3.10;91.50
48994;DHT22;34804;49.214;12.276;2023-01-08T10:40:20;3.30;91.50
48994;DHT22;34804;49.214;12.276;2023-01-08T10:42:49;3.50;91.60
48994;DHT22;34804;49.214;12.276;2023-01-08T10:45:23;3.60;91.60
48994;DHT22;34804;49.214;12.276;2023-01-08T10:47:54;3.80;91.40
48994;DHT22;34804;49.214;12.276;2023-01-08T10:50:26;3.90;91.30
48994;DHT22;34804;49.214;12.276;2023-01-08T10:53:01;3.90;90.90
48994;DHT22;34804;49.214;12.276;2023-01-08T10:55:33;4.00;90.90
48994;DHT22;34804;49.214;12.276;2023-01-08T11:00:37;3.90;91.30
48994;DHT22;34804;49.214;12.276;2023-01-08T11:03:06;4.10;91.30
48994;DHT22;34804;49.214;12.276;2023-01-08T11:05:36;4.40;91.20
48994;DHT22;34804;49.214;12.276;2023-01-08T11:08:15;4.50;91.00
48994;DHT22;34804;49.214;12.276;2023-01-08T11:10:42;4.50;90.50
48994;DHT22;34804;49.214;12.276;2023-01-08T11:13:18;4.60;91.20
48994;DHT22;34804;49.214;12.276;2023-01-08T11:15:46;4.80;90.40
48994;DHT22;34804;49.214;12.276;2023-01-08T11:18:24;4.80;90.60
48994;DHT22;34804;49.214;12.276;2023-01-08T11:20:53;4.80;89.90
48994;DHT22;34804;49.214;12.276;2023-01-08T11:23:31;4.90;90.30
48994;DHT22;34804;49.214;12.276;2023-01-08T11:26:09;4.90;90.60
48994;DHT22;34804;49.214;12.276;2023-01-08T11:29:12;5.00;90.30
48994;DHT22;34804;49.214;12.276;2023-01-08T11:34:55;4.90;90.90
48994;DHT22;34804;49.214;12.276;2023-01-08T11:37:28;4.80;91.10
48994;DHT22;34804;49.214;12.276;2023-01-08T11:39:56;4.80;91.60
48994;DHT22;34804;49.214;12.276;2023-01-08T11:45:35;4.70;92.20
48994;DHT22;34804;49.214;12.276;2023-01-08T11:48:21;4.60;92.70
48994;DHT22;34804;49.214;12.276;2023-01-08T11:51:09;4.60;93.10
48994;DHT22;34804;49.214;12.276;2023-01-08T11:53:48;4.60;93.10
48994;DHT22;34804;49.214;12.276;2023-01-08T12:08:02;4.80;93.10
48994;DHT22;34804;49.214;12.276;2023-01-08T12:10:32;4.70;93.10
48994;DHT22;34804;49.214;12.276;2023-01-08T12:13:24;4.80;93.30
48994;DHT22;34804;49.214;12.276;2023-01-08T12:16:20;4.80;93.20
48994;DHT22;34804;49.214;12.276;2023-01-08T12:21:44;5.00;92.90
48994;DHT22;34804;49.214;12.276;2023-01-08T12:24:47;5.20;92.50
48994;DHT22;34804;49.214;12.276;2023-01-08T12:27:17;5.30;92.20
48994;DHT22;34804;49.214;12.276;2023-01-08T12:33:43;5.40;88.40
48994;DHT22;34804;49.214;12.276;2023-01-08T12:36:20;5.40;88.00
48994;DHT22;34804;49.214;12.276;2023-01-08T12:38:57;5.50;87.60
48994;DHT22;34804;49.214;12.276;2023-01-08T12:41:27;5.50;87.10
48994;DHT22;34804;49.214;12.276;2023-01-08T12:43:58;5.50;87.60
48994;DHT22;34804;49.214;12.276;2023-01-08T12:46:35;5.40;87.60
48994;DHT22;34804;49.214;12.276;2023-01-08T12:49:05;5.50;87.60
48994;DHT22;34804;49.214;12.276;2023-01-08T12:54:39;5.40;88.20
48994;DHT22;34804;49.214;12.276;2023-01-08T12:57:39;5.40;88.00
48994;DHT22;34804;49.214;12.276;2023-01-08T13:02:57;5.30;88.30
48994;DHT22;34804;49.214;12.276;2023-01-08T13:07:57;5.20;88.60
48994;DHT22;34804;49.214;12.276;2023-01-08T13:10:32;5.20;87.90
48994;DHT22;34804;49.214;12.276;2023-01-08T13:13:00;5.20;88.40
48994;DHT22;34804;49.214;12.276;2023-01-08T13:15:29;5.20;88.70
48994;DHT22;34804;49.214;12.276;2023-01-08T13:18:06;5.20;89.00
48994;DHT22;34804;49.214;12.276;2023-01-08T13:20:33;5.20;88.70
48994;DHT22;34804;49.214;12.276;2023-01-08T13:23:02;5.20;87.80
48994;DHT22;34804;49.214;12.276;2023-01-08T13:25:50;5.30;87.70
48994;DHT22;34804;49.214;12.276;2023-01-08T13:30:52;5.30;88.50
48994;DHT22;34804;49.214;12.276;2023-01-08T13:33:48;5.30;88.50
48994;DHT22;34804;49.214;12.276;2023-01-08T13:36:27;5.30;88.60
48994;DHT22;34804;49.214;12.276;2023-01-08T13:39:01;5.30;88.70
48994;DHT22;34804;49.214;12.276;2023-01-08T13:41:37;5.30;88.40
48994;DHT22;34804;49.214;12.276;2023-01-08T13:44:26;5.30;89.00
48994;DHT22;34804;49.214;12.276;2023-01-08T13:46:55;5.40;89.30
48994;DHT22;34804;49.214;12.276;2023-01-08T13:49:35;5.30;89.50
48994;DHT22;34804;49.214;12.276;2023-01-08T13:54:53;5.40;90.00
48994;DHT22;34804;49.214;12.276;2023-01-08T13:57:22;5.30;89.70
48994;DHT22;34804;49.214;12.276;2023-01-08T13:59:53;5.40;89.80
48994;DHT22;34804;49.214;12.276;2023-01-08T14:04:53;5.30;89.90
48994;DHT22;34804;49.214;12.276;2023-01-08T14:07:20;5.30;89.90
48994;DHT22;34804;49.214;12.276;2023-01-08T14:09:50;5.30;89.80
48994;DHT22;34804;49.214;12.276;2023-01-08T14:12:26;5.30;90.10
48994;DHT22;34804;49.214;12.276;2023-01-08T14:14:55;5.30;90.10
48994;DHT22;34804;49.214;12.276;2023-01-08T14:17:29;5.30;90.30
48994;DHT22;34804;49.214;12.276;2023-01-08T14:19:57;5.20;90.50
48994;DHT22;34804;49.214;12.276;2023-01-08T14:22:32;5.20;90.60
48994;DHT22;34804;49.214;12.276;2023-01-08T14:25:03;5.10;91.00
48994;DHT22;34804;49.214;12.276;2023-01-08T14:27:33;5.10;91.00
48994;DHT22;34804;49.214;12.276;2023-01-08T14:30:01;5.10;91.00
48994;DHT22;34804;49.214;12.276;2023-01-08T14:32:29;5.10;91.00
48994;DHT22;34804;49.214;12.276;2023-01-08T14:34:58;5.00;91.00
48994;DHT22;34804;49.214;12.276;2023-01-08T14:37:26;5.00;91.20
48994;DHT22;34804;49.214;12.276;2023-01-08T14:39:53;5.00;91.20
48994;DHT22;34804;49.214;12.276;2023-01-08T14:42:23;5.00;91.20
48994;DHT22;34804;49.214;12.276;2023-01-08T14:45:31;4.90;91.40
48994;DHT22;34804;49.214;12.276;2023-01-08T14:51:03;4.90;91.50
48994;DHT22;34804;49.214;12.276;2023-01-08T14:56:00;4.80;91.40
48994;DHT22;34804;49.214;12.276;2023-01-08T14:58:33;4.80;91.50
48994;DHT22;34804;49.214;12.276;2023-01-08T15:01:26;4.70;91.40
48994;DHT22;34804;49.214;12.276;2023-01-08T15:04:06;4.70;91.30
48994;DHT22;34804;49.214;12.276;2023-01-08T15:06:33;4.70;90.90
48994;DHT22;34804;49.214;12.276;2023-01-08T15:09:00;4.70;90.70
48994;DHT22;34804;49.214;12.276;2023-01-08T15:11:29;4.70;90.90
48994;DHT22;34804;49.214;12.276;2023-01-08T15:13:57;4.60;90.60
48994;DHT22;34804;49.214;12.276;2023-01-08T15:16:38;4.70;90.80
48994;DHT22;34804;49.214;12.276;2023-01-08T15:19:06;4.70;90.80
48994;DHT22;34804;49.214;12.276;2023-01-08T15:21:36;4.60;90.80
48994;DHT22;34804;49.214;12.276;2023-01-08T15:24:06;4.60;90.50
48994;DHT22;34804;49.214;12.276;2023-01-08T15:26:33;4.60;90.60
48994;DHT22;34804;49.214;12.276;2023-01-08T15:29:06;4.50;91.00
48994;DHT22;34804;49.214;12.276;2023-01-08T15:34:09;4.40;90.80
48994;DHT22;34804;49.214;12.276;2023-01-08T15:36:36;4.30;90.80
48994;DHT22;34804;49.214;12.276;2023-01-08T15:39:03;4.30;90.90
48994;DHT22;34804;49.214;12.276;2023-01-08T15:41:35;4.20;91.00
48994;DHT22;34804;49.214;12.276;2023-01-08T15:44:21;4.30;91.10
48994;DHT22;34804;49.214;12.276;2023-01-08T15:46:49;4.20;91.30
48994;DHT22;34804;49.214;12.276;2023-01-08T15:49:16;4.10;91.20
48994;DHT22;34804;49.214;12.276;2023-01-08T15:51:51;4.10;91.40
48994;DHT22;34804;49.214;12.276;2023-01-08T15:54:20;4.10;91.30
48994;DHT22;34804;49.214;12.276;2023-01-08T15:56:48;4.10;91.60
48994;DHT22;34804;49.214;12.276;2023-01-08T15:59:15;4.10;91.60
48994;DHT22;34804;49.214;12.276;2023-01-08T16:01:42;4.10;91.70
48994;DHT22;34804;49.214;12.276;2023-01-08T16:04:09;4.10;91.70
48994;DHT22;34804;49.214;12.276;2023-01-08T16:06:36;4.10;91.70
48994;DHT22;34804;49.214;12.276;2023-01-08T16:09:02;4.10;91.70
48994;DHT22;34804;49.214;12.276;2023-01-08T16:11:29;4.10;91.80
48994;DHT22;34804;49.214;12.276;2023-01-08T16:13:56;4.10;91.90
48994;DHT22;34804;49.214;12.276;2023-01-08T16:16:23;4.10;91.80
48994;DHT22;34804;49.214;12.276;2023-01-08T16:18:50;4.10;91.80
48994;DHT22;34804;49.214;12.276;2023-01-08T16:21:18;4.10;91.80
48994;DHT22;34804;49.214;12.276;2023-01-08T16:23:44;4.20;91.70
48994;DHT22;34804;49.214;12.276;2023-01-08T16:26:15;4.10;91.70
48994;DHT22;34804;49.214;12.276;2023-01-08T16:28:42;4.10;91.80
48994;DHT22;34804;49.214;12.276;2023-01-08T16:31:09;4.10;91.90
48994;DHT22;34804;49.214;12.276;2023-01-08T16:33:36;4.00;92.00
48994;DHT22;34804;49.214;12.276;2023-01-08T16:36:05;3.90;92.10
48994;DHT22;34804;49.214;12.276;2023-01-08T16:38:33;3.90;92.30